sensor_id;sensor_type;location;lat;lon;timestamp;pressure;altitude;pressure_sealevel;temperature;humidity
24996;BME280;13016;52.162;21.034;2022-11-14T18:06:32;101140.19;;;10.93;63.08
24996;BME280;13016;52.162;21.034;2022-11-14T18:08:58;101139.90;;;11.09;62.85
24996;BME280;13016;52.162;21.034;2022-11-14T18:11:23;101143.63;;;11.16;62.48
24996;BME280;13016;52.162;21.034;2022-11-14T18:13:52;101145.44;;;11.28;61.87
24996;BME280;13016;52.162;21.034;2022-11-14T18:16:18;101144.02;;;11.22;61.80
24996;BME280;13016;52.162;21.034;2022-11-14T18:18:44;101138.83;;;11.16;62.01
24996;BME280;13016;52.162;21.034;2022-11-14T18:21:16;101138.46;;;11.03;62.56
24996;BME280;13016;52.162;21.034;2022-11-14T18:23:42;101141.44;;;11.14;62.44
24996;BME280;13016;52.162;21.034;2022-11-14T18:26:12;101135.58;;;11.10;62.48
24996;BME280;13016;52.162;21.034;2022-11-14T18:28:38;101131.13;;;11.25;62.07
24996;BME280;13016;52.162;21.034;2022-11-14T18:31:05;101130.17;;;11.16;62.22
24996;BME280;13016;52.162;21.034;2022-11-14T18:33:30;101128.04;;;10.86;63.24
24996;BME280;13016;52.162;21.034;2022-11-14T18:35:57;101130.14;;;11.04;62.98
24996;BME280;13016;52.162;21.034;2022-11-14T18:38:22;101126.71;;;11.15;62.47
24996;BME280;13016;52.162;21.034;2022-11-14T18:40:48;101120.66;;;10.99;62.82
24996;BME280;13016;52.162;21.034;2022-11-14T18:43:15;101120.61;;;10.86;63.42
24996;BME280;13016;52.162;21.034;2022-11-14T18:45:40;101121.40;;;10.84;63.45
24996;BME280;13016;52.162;21.034;2022-11-14T18:48:06;101117.70;;;10.84;63.46
24996;BME280;13016;52.162;21.034;2022-11-14T18:50:31;101113.74;;;10.89;63.39
24996;BME280;13016;52.162;21.034;2022-11-14T18:52:57;101114.76;;;10.83;63.62
24996;BME280;13016;52.162;21.034;2022-11-14T18:55:22;101112.30;;;10.93;63.50
24996;BME280;13016;52.162;21.034;2022-11-14T18:57:47;101110.95;;;10.95;63.44
24996;BME280;13016;52.162;21.034;2022-11-14T19:00:13;101110.16;;;11.04;62.94
24996;BME280;13016;52.162;21.034;2022-11-14T19:02:40;101110.46;;;10.98;63.13
24996;BME280;13016;52.162;21.034;2022-11-14T19:05:05;101105.36;;;11.11;63.16
24996;BME280;13016;52.162;21.034;2022-11-14T19:07:30;101102.77;;;11.20;62.55
24996;BME280;13016;52.162;21.034;2022-11-14T19:09:56;101102.94;;;11.20;62.45
24996;BME280;13016;52.162;21.034;2022-11-14T19:12:21;101099.64;;;11.06;62.73
24996;BME280;13016;52.162;21.034;2022-11-14T19:14:47;101098.73;;;11.03;62.92
24996;BME280;13016;52.162;21.034;2022-11-14T19:17:12;101098.14;;;10.97;63.06
24996;BME280;13016;52.162;21.034;2022-11-14T19:19:38;101097.95;;;10.73;63.92
24996;BME280;13016;52.162;21.034;2022-11-14T19:22:03;101097.48;;;10.65;64.45
24996;BME280;13016;52.162;21.034;2022-11-14T19:24:29;101097.11;;;10.76;64.36
24996;BME280;13016;52.162;21.034;2022-11-14T19:26:54;101095.71;;;10.72;64.37
24996;BME280;13016;52.162;21.034;2022-11-14T19:29:20;101094.10;;;10.76;64.10
24996;BME280;13016;52.162;21.034;2022-11-14T19:31:45;101091.98;;;10.73;64.33
24996;BME280;13016;52.162;21.034;2022-11-14T19:34:10;101089.11;;;10.77;64.35
24996;BME280;13016;52.162;21.034;2022-11-14T19:36:36;101089.86;;;10.80;64.15
24996;BME280;13016;52.162;21.034;2022-11-14T19:39:01;101086.27;;;10.84;64.01
24996;BME280;13016;52.162;21.034;2022-11-14T19:41:29;101084.39;;;10.80;64.09
24996;BME280;13016;52.162;21.034;2022-11-14T19:43:56;101080.48;;;10.91;63.75
24996;BME280;13016;52.162;21.034;2022-11-14T19:46:23;101076.08;;;10.84;64.00
24996;BME280;13016;52.162;21.034;2022-11-14T19:48:49;101077.45;;;10.67;64.66
24996;BME280;13016;52.162;21.034;2022-11-14T19:51:16;101071.45;;;10.74;64.83
24996;BME280;13016;52.162;21.034;2022-11-14T19:53:43;101068.27;;;10.95;64.12
24996;BME280;13016;52.162;21.034;2022-11-14T19:56:11;101061.98;;;10.93;63.99
24996;BME280;13016;52.162;21.034;2022-11-14T19:58:38;101060.86;;;10.88;64.13
24996;BME280;13016;52.162;21.034;2022-11-14T20:01:07;101062.72;;;10.90;64.14
24996;BME280;13016;52.162;21.034;2022-11-14T20:03:33;101059.21;;;10.92;64.09
24996;BME280;13016;52.162;21.034;2022-11-14T20:05:59;101050.47;;;10.94;64.02
24996;BME280;13016;52.162;21.034;2022-11-14T20:08:25;101050.47;;;10.81;64.42
24996;BME280;13016;52.162;21.034;2022-11-14T20:11:01;101048.69;;;10.61;65.03
24996;BME280;13016;52.162;21.034;2022-11-14T20:13:38;101048.02;;;10.66;65.00
24996;BME280;13016;52.162;21.034;2022-11-14T20:16:12;101050.54;;;10.76;64.79
24996;BME280;13016;52.162;21.034;2022-11-14T20:18:38;101053.02;;;10.65;65.33
24996;BME280;13016;52.162;21.034;2022-11-14T20:21:05;101051.38;;;10.97;64.68
24996;BME280;13016;52.162;21.034;2022-11-14T20:23:33;101049.01;;;11.12;64.11
24996;BME280;13016;52.162;21.034;2022-11-14T20:25:58;101040.03;;;11.08;64.06
24996;BME280;13016;52.162;21.034;2022-11-14T20:28:24;101037.05;;;11.18;63.69
24996;BME280;13016;52.162;21.034;2022-11-14T20:30:49;101037.81;;;11.23;63.53
24996;BME280;13016;52.162;21.034;2022-11-14T20:33:14;101035.79;;;11.28;63.17
24996;BME280;13016;52.162;21.034;2022-11-14T20:35:39;101028.30;;;11.22;63.23
24996;BME280;13016;52.162;21.034;2022-11-14T20:38:05;101023.87;;;11.13;63.17
24996;BME280;13016;52.162;21.034;2022-11-14T20:40:32;101020.65;;;11.14;63.34
24996;BME280;13016;52.162;21.034;2022-11-14T20:42:58;101013.48;;;11.22;63.30
24996;BME280;13016;52.162;21.034;2022-11-14T20:45:24;101013.20;;;11.11;63.40
24996;BME280;13016;52.162;21.034;2022-11-14T20:47:49;101009.24;;;10.79;64.30
24996;BME280;13016;52.162;21.034;2022-11-14T20:50:15;101006.49;;;10.61;64.70
24996;BME280;13016;52.162;21.034;2022-11-14T20:52:41;101006.86;;;10.54;65.16
24996;BME280;13016;52.162;21.034;2022-11-14T20:55:06;101002.89;;;10.52;65.00
24996;BME280;13016;52.162;21.034;2022-11-14T20:57:32;100999.29;;;10.15;66.27
24996;BME280;13016;52.162;21.034;2022-11-14T20:59:58;100996.63;;;10.11;66.59
24996;BME280;13016;52.162;21.034;2022-11-14T21:02:23;100990.70;;;10.17;66.25
24996;BME280;13016;52.162;21.034;2022-11-14T21:04:48;100991.54;;;10.43;65.85
24996;BME280;13016;52.162;21.034;2022-11-14T21:07:13;100983.63;;;10.53;65.32
24996;BME280;13016;52.162;21.034;2022-11-14T21:09:39;100985.60;;;10.63;64.97
24996;BME280;13016;52.162;21.034;2022-11-14T21:12:04;100982.04;;;10.56;64.80
24996;BME280;13016;52.162;21.034;2022-11-14T21:14:29;100974.54;;;10.48;65.02
24996;BME280;13016;52.162;21.034;2022-11-14T21:16:55;100973.38;;;10.42;65.48
24996;BME280;13016;52.162;21.034;2022-11-14T21:19:20;100975.91;;;10.66;64.83
24996;BME280;13016;52.162;21.034;2022-11-14T21:21:45;100970.58;;;10.63;64.55
24996;BME280;13016;52.162;21.034;2022-11-14T21:24:10;100976.30;;;10.58;64.75
24996;BME280;13016;52.162;21.034;2022-11-14T21:26:37;100971.82;;;10.63;64.59
24996;BME280;13016;52.162;21.034;2022-11-14T21:29:10;100966.04;;;10.72;64.38
24996;BME280;13016;52.162;21.034;2022-11-14T21:31:42;100967.08;;;10.76;64.30
24996;BME280;13016;52.162;21.034;2022-11-14T21:34:12;100965.77;;;10.71;64.30
24996;BME280;13016;52.162;21.034;2022-11-14T21:36:38;100964.79;;;10.59;64.69
24996;BME280;13016;52.162;21.034;2022-11-14T21:39:04;100964.67;;;10.68;64.55
24996;BME280;13016;52.162;21.034;2022-11-14T21:41:30;100961.23;;;10.66;64.49
24996;BME280;13016;52.162;21.034;2022-11-14T21:43:58;100961.38;;;10.56;64.63
24996;BME280;13016;52.162;21.034;2022-11-14T21:46:24;100956.69;;;10.55;64.92
24996;BME280;13016;52.162;21.034;2022-11-14T21:48:50;100961.31;;;10.68;64.59
24996;BME280;13016;52.162;21.034;2022-11-14T21:51:18;100955.84;;;10.58;64.71
24996;BME280;13016;52.162;21.034;2022-11-14T21:53:45;100953.70;;;10.62;64.79
24996;BME280;13016;52.162;21.034;2022-11-14T21:56:16;100953.31;;;10.69;64.68
24996;BME280;13016;52.162;21.034;2022-11-14T21:58:42;100951.52;;;10.60;64.82
24996;BME280;13016;52.162;21.034;2022-11-14T22:01:19;100948.33;;;10.40;65.24
24996;BME280;13016;52.162;21.034;2022-11-14T22:03:45;100951.79;;;10.27;65.98
24996;BME280;13016;52.162;21.034;2022-11-14T22:06:11;100948.52;;;10.43;65.50
24996;BME280;13016;52.162;21.034;2022-11-14T22:08:36;100947.62;;;10.57;65.22
24996;BME280;13016;52.162;21.034;2022-11-14T22:11:01;100944.25;;;10.74;64.79
24996;BME280;13016;52.162;21.034;2022-11-14T22:13:28;100940.19;;;10.74;64.42
24996;BME280;13016;52.162;21.034;2022-11-14T22:15:54;100935.91;;;10.23;65.62
24996;BME280;13016;52.162;21.034;2022-11-14T22:18:19;100934.81;;;10.24;65.99
24996;BME280;13016;52.162;21.034;2022-11-14T22:20:44;100938.20;;;10.41;65.74
24996;BME280;13016;52.162;21.034;2022-11-14T22:23:10;100937.62;;;10.46;65.48
24996;BME280;13016;52.162;21.034;2022-11-14T22:25:35;100933.70;;;10.36;65.63
24996;BME280;13016;52.162;21.034;2022-11-14T22:28:00;100934.77;;;10.22;65.96
24996;BME280;13016;52.162;21.034;2022-11-14T22:30:25;100931.84;;;10.20;66.22
24996;BME280;13016;52.162;21.034;2022-11-14T22:32:51;100931.36;;;10.09;66.65
24996;BME280;13016;52.162;21.034;2022-11-14T22:35:16;100936.02;;;10.32;66.23
24996;BME280;13016;52.162;21.034;2022-11-14T22:37:42;100925.25;;;10.32;65.93
24996;BME280;13016;52.162;21.034;2022-11-14T22:40:08;100921.93;;;10.39;65.88
24996;BME280;13016;52.162;21.034;2022-11-14T22:42:33;100920.73;;;10.31;66.03
24996;BME280;13016;52.162;21.034;2022-11-14T22:44:58;100919.67;;;10.27;66.16
24996;BME280;13016;52.162;21.034;2022-11-14T22:47:23;100918.95;;;10.18;66.62
24996;BME280;13016;52.162;21.034;2022-11-14T22:49:49;100911.61;;;10.33;66.46
24996;BME280;13016;52.162;21.034;2022-11-14T22:52:14;100906.71;;;10.29;66.37
24996;BME280;13016;52.162;21.034;2022-11-14T22:54:40;100909.63;;;10.38;66.45
24996;BME280;13016;52.162;21.034;2022-11-14T22:57:05;100907.55;;;10.44;66.12
24996;BME280;13016;52.162;21.034;2022-11-14T22:59:30;100903.92;;;10.42;66.14
24996;BME280;13016;52.162;21.034;2022-11-14T23:01:55;100906.95;;;10.45;66.18
24996;BME280;13016;52.162;21.034;2022-11-14T23:04:21;100896.73;;;10.55;66.06
24996;BME280;13016;52.162;21.034;2022-11-14T23:06:46;100893.60;;;10.48;66.10
24996;BME280;13016;52.162;21.034;2022-11-14T23:09:11;100897.34;;;10.50;66.11
24996;BME280;13016;52.162;21.034;2022-11-14T23:11:37;100900.14;;;10.44;66.29
24996;BME280;13016;52.162;21.034;2022-11-14T23:14:02;100901.46;;;10.49;66.31
24996;BME280;13016;52.162;21.034;2022-11-14T23:16:29;100896.70;;;10.62;65.98
24996;BME280;13016;52.162;21.034;2022-11-14T23:18:57;100889.30;;;10.52;66.02
24996;BME280;13016;52.162;21.034;2022-11-14T23:21:28;100890.02;;;10.35;66.64
24996;BME280;13016;52.162;21.034;2022-11-14T23:23:56;100886.73;;;10.44;66.61
24996;BME280;13016;52.162;21.034;2022-11-14T23:26:23;100882.63;;;10.42;66.59
24996;BME280;13016;52.162;21.034;2022-11-14T23:28:48;100879.70;;;10.43;66.61
24996;BME280;13016;52.162;21.034;2022-11-14T23:31:14;100880.23;;;10.30;67.04
24996;BME280;13016;52.162;21.034;2022-11-14T23:33:40;100878.50;;;10.43;67.08
24996;BME280;13016;52.162;21.034;2022-11-14T23:36:05;100880.46;;;10.62;66.73
24996;BME280;13016;52.162;21.034;2022-11-14T23:38:30;100873.73;;;10.56;66.33
24996;BME280;13016;52.162;21.034;2022-11-14T23:40:57;100875.24;;;10.34;67.00
24996;BME280;13016;52.162;21.034;2022-11-14T23:43:23;100869.32;;;10.33;67.15
24996;BME280;13016;52.162;21.034;2022-11-14T23:45:49;100872.11;;;10.44;67.21
24996;BME280;13016;52.162;21.034;2022-11-14T23:48:15;100878.30;;;10.40;67.10
24996;BME280;13016;52.162;21.034;2022-11-14T23:50:42;100874.22;;;10.27;67.59
24996;BME280;13016;52.162;21.034;2022-11-14T23:53:08;100871.09;;;10.43;67.29
24996;BME280;13016;52.162;21.034;2022-11-14T23:55:34;100869.20;;;10.28;67.51
24996;BME280;13016;52.162;21.034;2022-11-14T23:58:00;100863.05;;;10.24;67.94
